Time;durP1;ratioP1;P1;durP2;ratioP2;P2;SDS_P1;SDS_P2;PMS_P1;PMS_P2;Temp;Humidity;BMP_temperature;BMP_pressure;BME280_temperature;BME280_humidity;BME280_pressure;Samples;Min_cycle;Max_cycle;Signal;HPM_P1;HPM_P2
2021/04/01 00:00:15;;;;;;;16.67;6.45;;;;;;;10.39;81.70;100840.69;5022502;28;20041;-66
2021/04/01 00:02:43;;;;;;;15.15;6.78;;;;;;;10.37;81.92;100837.13;5024284;28;20042;-65
2021/04/01 00:05:13;;;;;;;9.77;5.30;;;;;;;10.34;81.94;100838.84;5031103;28;20133;-66
2021/04/01 00:07:40;;;;;;;9.90;5.13;;;;;;;10.28;82.08;100834.34;5018130;28;20107;-66
2021/04/01 00:10:10;;;;;;;7.75;5.00;;;;;;;10.24;81.94;100835.13;5018113;28;20038;-65
2021/04/01 00:12:37;;;;;;;10.80;4.72;;;;;;;10.14;82.11;100841.09;5028544;28;20113;-66
2021/04/01 00:15:05;;;;;;;12.57;5.30;;;;;;;10.11;82.08;100848.91;5029136;28;20041;-65
2021/04/01 00:17:32;;;;;;;9.73;5.25;;;;;;;10.07;81.65;100844.47;5030225;28;20057;-65
2021/04/01 00:19:59;;;;;;;12.30;5.30;;;;;;;10.04;81.39;100841.78;5030415;28;20041;-65
2021/04/01 00:22:28;;;;;;;11.68;4.85;;;;;;;9.98;81.33;100836.38;5017563;28;20402;-66
2021/04/01 00:24:55;;;;;;;13.57;6.43;;;;;;;9.98;80.91;100836.38;5011897;28;20038;-65
2021/04/01 00:27:22;;;;;;;10.10;5.60;;;;;;;9.96;80.74;100841.63;5010241;28;20037;-66
2021/04/01 00:29:49;;;;;;;11.23;6.18;;;;;;;9.93;80.41;100838.03;5010866;28;20054;-65
2021/04/01 00:32:16;;;;;;;14.77;11.50;;;;;;;9.88;80.28;100831.78;5019078;28;20048;-66
2021/04/01 00:34:43;;;;;;;14.00;9.10;;;;;;;9.82;80.60;100829.94;5022194;28;20100;-65
2021/04/01 00:37:10;;;;;;;10.70;7.13;;;;;;;9.79;80.46;100834.22;5011135;28;20038;-65
2021/04/01 00:39:39;;;;;;;13.45;6.60;;;;;;;9.79;80.29;100823.69;5014204;28;20042;-65
2021/04/01 00:42:06;;;;;;;13.63;7.85;;;;;;;9.78;80.47;100841.25;5017556;28;20044;-65
2021/04/01 00:44:35;;;;;;;10.30;5.35;;;;;;;9.78;80.38;100833.34;5029915;28;20087;-65
2021/04/01 00:47:06;;;;;;;12.18;5.43;;;;;;;9.86;80.07;100823.84;5029988;28;20061;-65
2021/04/01 00:49:33;;;;;;;11.27;6.60;;;;;;;9.84;80.26;100816.78;5016559;28;20038;-65
2021/04/01 00:52:00;;;;;;;9.90;5.68;;;;;;;9.79;80.21;100819.31;5027960;28;20121;-65
2021/04/01 00:54:28;;;;;;;10.13;5.15;;;;;;;9.75;80.17;100827.13;5027997;28;20034;-65
2021/04/01 00:56:56;;;;;;;8.68;5.35;;;;;;;9.75;80.38;100817.47;5030021;28;20041;-66
2021/04/01 00:59:24;;;;;;;11.48;6.13;;;;;;;9.77;80.22;100825.44;5029865;28;20061;-66
2021/04/01 01:01:51;;;;;;;15.25;9.02;;;;;;;9.81;80.06;100817.59;5025756;28;20038;-65
2021/04/01 01:04:19;;;;;;;10.82;6.32;;;;;;;9.85;80.40;100813.25;5024620;28;20087;-66
2021/04/01 01:06:47;;;;;;;10.30;6.47;;;;;;;9.84;79.99;100816.78;5010839;28;20570;-66
2021/04/01 01:09:13;;;;;;;12.75;6.53;;;;;;;9.81;80.11;100814.97;5021117;28;20152;-65
2021/04/01 01:11:41;;;;;;;7.38;4.78;;;;;;;9.78;80.42;100816.66;5025558;28;20045;-66
2021/04/01 01:14:09;;;;;;;8.88;5.47;;;;;;;9.81;80.50;100812.31;5010156;28;20045;-65
2021/04/01 01:16:37;;;;;;;12.07;5.60;;;;;;;9.85;80.50;100822.06;5010833;28;20133;-65
2021/04/01 01:19:05;;;;;;;25.40;13.38;;;;;;;9.86;80.25;100809.78;5012080;28;20121;-65
2021/04/01 01:21:33;;;;;;;23.42;12.63;;;;;;;9.88;80.42;100815.97;5011828;28;20124;-66
2021/04/01 01:24:02;;;;;;;15.18;7.55;;;;;;;9.92;80.58;100802.88;5029903;28;20112;-65
2021/04/01 01:26:31;;;;;;;10.43;5.60;;;;;;;9.95;81.07;100810.84;5029440;28;20038;-65
2021/04/01 01:28:58;;;;;;;14.63;6.20;;;;;;;9.95;81.02;100800.28;5029919;28;20514;-65
2021/04/01 01:31:25;;;;;;;10.27;5.38;;;;;;;10.00;81.00;100803.00;5026981;28;20099;-65
2021/04/01 01:33:56;;;;;;;8.82;5.40;;;;;;;10.03;80.92;100807.47;5010840;28;20050;-65
2021/04/01 01:36:22;;;;;;;8.98;6.00;;;;;;;9.98;80.92;100802.97;5013461;28;20033;-65
2021/04/01 01:38:49;;;;;;;9.90;5.78;;;;;;;9.97;81.22;100805.63;5014000;28;20120;-65
2021/04/01 01:41:16;;;;;;;11.55;6.22;;;;;;;9.98;81.50;100802.09;5028888;28;20040;-66
2021/04/01 01:43:44;;;;;;;10.90;7.60;;;;;;;10.03;81.36;100802.19;5024934;28;20038;-65
2021/04/01 01:46:11;;;;;;;12.20;7.32;;;;;;;10.02;81.56;100803.94;5013939;28;20458;-65
2021/04/01 01:48:38;;;;;;;10.15;7.13;;;;;;;10.04;81.72;100799.59;5013232;28;20038;-65
2021/04/01 01:51:06;;;;;;;13.70;8.27;;;;;;;10.06;81.85;100796.97;5020132;28;20107;-65
2021/04/01 01:53:33;;;;;;;16.23;9.65;;;;;;;10.10;81.81;100804.97;5015277;28;20042;-65
2021/04/01 01:56:00;;;;;;;12.32;7.80;;;;;;;10.10;81.96;100794.44;5014681;28;20048;-65
2021/04/01 01:58:26;;;;;;;10.38;6.32;;;;;;;10.11;82.23;100796.16;5027192;28;20184;-65
2021/04/01 02:00:58;;;;;;;12.77;6.82;;;;;;;10.11;81.94;100801.44;5032437;28;20076;-66
2021/04/01 02:03:27;;;;;;;11.13;6.20;;;;;;;10.17;81.97;100801.63;5027887;28;20061;-66
2021/04/01 02:05:54;;;;;;;14.13;6.40;;;;;;;10.18;82.42;100803.38;5031953;28;20140;-65
2021/04/01 02:08:21;;;;;;;12.02;6.47;;;;;;;10.21;82.49;100814.00;5017723;28;20037;-66
2021/04/01 02:10:50;;;;;;;10.65;6.85;;;;;;;10.24;82.11;100808.75;5012386;28;20038;-65
2021/04/01 02:13:20;;;;;;;12.10;6.40;;;;;;;10.27;82.47;100808.81;5015531;28;20120;-66
2021/04/01 02:15:49;;;;;;;10.40;6.07;;;;;;;10.28;82.40;100807.06;5033162;28;20034;-65
2021/04/01 02:18:19;;;;;;;10.85;6.32;;;;;;;10.30;82.75;100813.28;5028912;28;20606;-66
2021/04/01 02:20:48;;;;;;;11.85;6.82;;;;;;;10.32;82.59;100817.69;5013455;28;20048;-65
2021/04/01 02:23:16;;;;;;;9.80;6.50;;;;;;;10.32;82.70;100812.41;5028115;28;20037;-66
2021/04/01 02:25:46;;;;;;;15.55;6.82;;;;;;;10.33;82.27;100808.91;5032847;28;20037;-66
2021/04/01 02:28:14;;;;;;;11.68;6.05;;;;;;;10.34;82.29;100801.91;5015537;28;20104;-65
2021/04/01 02:30:42;;;;;;;10.35;6.68;;;;;;;10.37;82.34;100813.38;5012793;28;20048;-65
2021/04/01 02:33:09;;;;;;;11.10;6.28;;;;;;;10.36;82.35;100806.34;5025340;28;20041;-66
2021/04/01 02:35:38;;;;;;;11.75;6.10;;;;;;;10.37;82.22;100808.09;5032042;28;20034;-65
2021/04/01 02:38:06;;;;;;;10.38;6.40;;;;;;;10.34;82.29;100813.34;5028523;28;20402;-65
2021/04/01 02:40:35;;;;;;;11.32;6.18;;;;;;;10.36;82.27;100810.75;5012355;28;20042;-65
2021/04/01 02:43:02;;;;;;;12.05;5.90;;;;;;;10.36;82.24;100808.09;5020028;28;20061;-65
2021/04/01 02:45:29;;;;;;;10.75;6.30;;;;;;;10.38;82.61;100814.25;5011982;28;20038;-65
2021/04/01 02:47:56;;;;;;;11.82;7.22;;;;;;;10.37;82.70;100813.38;5014963;28;20052;-66
2021/04/01 02:50:24;;;;;;;10.15;6.60;;;;;;;10.33;82.10;100808.91;5029077;28;20037;-66
2021/04/01 02:52:52;;;;;;;12.63;8.35;;;;;;;10.34;82.01;100813.34;5018437;28;20044;-67
2021/04/01 02:55:20;;;;;;;14.93;9.73;;;;;;;10.31;82.09;100815.03;5030653;28;20559;-66
2021/04/01 02:57:47;;;;;;;17.80;11.13;;;;;;;10.30;82.55;100816.81;5032156;28;20037;-65
2021/04/01 03:00:18;;;;;;;15.90;10.93;;;;;;;10.34;82.44;100820.38;5020601;28;20046;-65
2021/04/01 03:02:49;;;;;;;13.60;8.20;;;;;;;10.32;82.37;100822.97;5013760;28;20037;-65
2021/04/01 03:05:16;;;;;;;14.38;9.52;;;;;;;10.32;81.82;100822.09;5012092;28;20125;-67
2021/04/01 03:07:43;;;;;;;19.20;12.18;;;;;;;10.31;82.19;100822.94;5019883;28;20062;-65
2021/04/01 03:10:14;;;;;;;16.00;10.18;;;;;;;10.31;81.94;100821.19;5018769;28;20026;-65
2021/04/01 03:12:41;;;;;;;12.07;7.68;;;;;;;10.31;82.24;100821.19;5020913;28;20145;-65
2021/04/01 03:15:10;;;;;;;17.35;9.23;;;;;;;10.34;81.89;100825.66;5023904;28;20083;-65
2021/04/01 03:17:39;;;;;;;17.60;10.07;;;;;;;10.36;81.62;100821.28;5029569;28;20057;-65
2021/04/01 03:20:08;;;;;;;13.70;8.00;;;;;;;10.36;81.60;100821.28;5012171;28;20566;-65
2021/04/01 03:22:35;;;;;;;12.48;6.88;;;;;;;10.43;81.52;100815.25;5021663;28;20175;-66
2021/04/01 03:25:04;;;;;;;11.43;7.28;;;;;;;10.54;81.99;100815.44;5031487;28;20037;-65
2021/04/01 03:27:32;;;;;;;11.48;7.38;;;;;;;10.64;81.68;100815.59;5019376;28;20479;-66
2021/04/01 03:30:05;;;;;;;16.15;10.07;;;;;;;10.71;81.49;100808.66;5012084;28;20042;-65
2021/04/01 03:32:34;;;;;;;14.23;9.15;;;;;;;10.73;81.58;100814.84;5020545;28;20042;-65
2021/04/01 03:35:01;;;;;;;17.35;10.02;;;;;;;10.72;81.76;100827.16;5031443;28;20065;-65
2021/04/01 03:37:28;;;;;;;17.15;10.75;;;;;;;10.78;81.65;100821.09;5030923;28;20128;-66
2021/04/01 03:39:56;;;;;;;14.93;7.97;;;;;;;10.76;81.75;100815.78;5029879;28;20125;-65
2021/04/01 03:42:23;;;;;;;11.30;6.65;;;;;;;10.78;81.96;100823.72;5018889;28;20117;-66
2021/04/01 03:44:52;;;;;;;12.85;6.65;;;;;;;10.83;81.76;100822.03;5011628;28;20041;-65
2021/04/01 03:47:19;;;;;;;12.88;6.55;;;;;;;10.82;81.59;100819.41;5030065;28;20030;-65
2021/04/01 03:49:47;;;;;;;10.82;6.35;;;;;;;10.84;81.81;100829.09;5031207;28;20052;-65
2021/04/01 03:52:14;;;;;;;17.90;6.72;;;;;;;10.86;81.32;100827.38;5022773;28;20057;-65
2021/04/01 03:54:42;;;;;;;13.18;6.53;;;;;;;10.88;81.15;100833.59;5029300;28;20134;-66
2021/04/01 03:57:09;;;;;;;11.30;6.07;;;;;;;10.84;80.99;100829.09;5030311;28;20039;-65
2021/04/01 03:59:42;;;;;;;11.75;6.50;;;;;;;10.81;81.22;100828.19;5030663;28;20049;-66
2021/04/01 04:05:07;;;;;;;13.18;7.57;;;;;;;10.77;81.18;100837.78;5017777;28;20127;-65
2021/04/01 04:10:43;;;;;;;13.73;8.73;;;;;;;10.68;81.12;100841.19;4988451;28;20050;-65
2021/04/01 04:13:27;;;;;;;15.45;9.30;;;;;;;10.64;81.25;100831.44;4987083;28;20043;-65
2021/04/01 04:15:54;;;;;;;12.57;7.75;;;;;;;10.64;81.17;100838.47;5002769;28;20034;-65
2021/04/01 04:18:22;;;;;;;12.10;7.22;;;;;;;10.63;80.88;100840.19;5010578;28;20494;-65
2021/04/01 04:20:49;;;;;;;12.60;8.07;;;;;;;10.60;80.91;100839.28;5010940;28;20519;-65
2021/04/01 04:23:19;;;;;;;14.52;8.23;;;;;;;10.62;80.55;100835.81;5026077;28;20533;-66
2021/04/01 04:25:46;;;;;;;12.75;7.78;;;;;;;10.68;80.62;100848.22;5029044;28;20041;-65
2021/04/01 04:28:18;;;;;;;12.20;6.50;;;;;;;10.69;80.18;100850.91;5023841;28;20037;-65
2021/04/01 04:30:46;;;;;;;10.88;7.57;;;;;;;10.68;80.22;100853.50;5010721;28;20528;-65
2021/04/01 04:33:13;;;;;;;11.73;7.90;;;;;;;10.65;80.38;100858.72;5024782;28;20490;-65
2021/04/01 04:35:42;;;;;;;14.90;7.10;;;;;;;10.63;79.89;100860.47;5028792;28;20083;-65
2021/04/01 04:38:09;;;;;;;22.70;12.52;;;;;;;10.59;79.99;100869.19;5028813;28;20124;-65
2021/04/01 04:40:36;;;;;;;17.48;10.20;;;;;;;10.58;79.94;100868.28;5030032;28;20037;-65
2021/04/01 04:43:03;;;;;;;14.32;8.73;;;;;;;10.57;80.14;100873.53;5019296;28;20057;-65
2021/04/01 04:45:30;;;;;;;19.40;10.95;;;;;;;10.56;80.31;100874.41;5021078;28;20033;-65
2021/04/01 04:47:57;;;;;;;15.98;11.57;;;;;;;10.56;80.14;100874.41;5027862;28;20037;-65
2021/04/01 04:50:24;;;;;;;15.65;11.82;;;;;;;10.57;80.16;100877.06;5014103;28;20120;-65
2021/04/01 04:52:52;;;;;;;21.33;12.15;;;;;;;10.62;80.32;100882.44;5020573;28;20400;-65
2021/04/01 04:55:20;;;;;;;19.77;11.90;;;;;;;10.66;79.89;100878.97;5015077;28;20139;-65
2021/04/01 04:57:50;;;;;;;14.50;8.90;;;;;;;10.69;80.03;100879.03;5029969;28;20037;-65
2021/04/01 05:05:59;;;;;;;12.88;7.60;;;;;;;10.79;80.20;100883.59;5029681;28;20490;-65
2021/04/01 05:08:27;;;;;;;13.30;8.75;;;;;;;10.79;80.14;100889.78;5014204;28;20437;-65
2021/04/01 05:10:54;;;;;;;14.93;8.15;;;;;;;10.78;80.15;100892.38;5012478;28;20061;-65
2021/04/01 05:13:21;;;;;;;15.30;11.50;;;;;;;10.80;80.33;100893.31;5012552;28;20068;-65
2021/04/01 05:15:51;;;;;;;24.08;16.95;;;;;;;10.86;80.03;100889.88;5009265;28;20189;-65
2021/04/01 05:18:27;;;;;;;14.73;9.38;;;;;;;10.90;79.89;100889.94;5012978;28;20033;-66
2021/04/01 05:20:55;;;;;;;28.00;18.55;;;;;;;10.96;80.21;100887.38;5029924;28;20049;-64
2021/04/01 05:23:36;;;;;;;20.80;16.25;;;;;;;11.18;80.17;100896.53;5028300;28;20557;-65
2021/04/01 05:28:59;;;;;;;14.57;10.60;;;;;;;11.73;80.98;100900.88;5013008;28;20553;-66
2021/04/01 05:31:29;;;;;;;14.98;9.35;;;;;;;11.78;80.92;100895.66;5009967;28;20037;-66
2021/04/01 05:33:57;;;;;;;11.48;7.03;;;;;;;11.92;80.56;100902.03;5024939;28;20073;-66
2021/04/01 05:36:26;;;;;;;12.43;7.22;;;;;;;12.15;79.64;100911.09;5015588;28;20534;-66
2021/04/01 05:38:54;;;;;;;9.60;5.25;;;;;;;12.31;78.45;100914.81;5029711;28;20128;-66
2021/04/01 05:41:24;;;;;;;8.95;6.43;;;;;;;12.39;78.02;100921.09;5027511;28;20375;-66
2021/04/01 05:43:59;;;;;;;11.00;6.82;;;;;;;12.29;76.96;100919.19;5014703;28;20049;-66
2021/04/01 05:46:32;;;;;;;10.38;7.32;;;;;;;12.21;76.82;100921.75;5037208;28;20041;-66
2021/04/01 05:49:07;;;;;;;9.80;7.03;;;;;;;12.17;76.75;100929.66;5028351;28;20547;-66
2021/04/01 06:03:07;;;;;;;12.80;9.25;;;;;;;12.03;76.58;100945.34;5024532;28;20045;-66
2021/04/01 06:05:38;;;;;;;11.03;9.20;;;;;;;12.13;76.27;100941.09;5033499;28;20498;-66
2021/04/01 06:08:08;;;;;;;13.43;8.98;;;;;;;12.23;75.47;100949.13;5029069;28;20076;-66
2021/04/01 06:10:36;;;;;;;12.85;9.48;;;;;;;12.36;75.41;100942.22;5035607;28;20061;-66
2021/04/01 06:13:09;;;;;;;15.43;10.40;;;;;;;12.51;75.36;100949.44;5029393;28;20053;-66
2021/04/01 06:15:37;;;;;;;11.65;8.52;;;;;;;12.63;75.28;100947.81;5028851;28;20132;-66
2021/04/01 06:18:11;;;;;;;12.43;8.15;;;;;;;12.82;75.12;100940.03;5029310;28;20136;-66
2021/04/01 06:20:40;;;;;;;11.05;7.32;;;;;;;12.88;74.35;100935.69;5043596;28;20579;-66
2021/04/01 06:23:07;;;;;;;10.45;6.35;;;;;;;12.88;73.86;100943.63;5040474;28;20038;-66
2021/04/01 06:25:37;;;;;;;20.23;5.40;;;;;;;12.83;73.08;100944.47;5032338;28;20129;-66
2021/04/01 06:28:13;;;;;;;9.02;4.35;;;;;;;12.71;73.01;100958.50;5036710;28;20083;-66
2021/04/01 06:30:47;;;;;;;10.57;4.53;;;;;;;12.59;72.47;100961.91;5032817;28;20040;-66
2021/04/01 06:33:20;;;;;;;9.25;5.70;;;;;;;12.52;72.79;100969.75;5013158;28;20121;-66
2021/04/01 06:35:49;;;;;;;8.73;6.38;;;;;;;12.52;72.59;100968.00;5011558;28;20072;-65
2021/04/01 06:38:31;;;;;;;8.60;4.70;;;;;;;12.59;72.78;100966.31;5029139;28;20041;-67
2021/04/01 06:41:02;;;;;;;12.25;5.93;;;;;;;12.75;72.44;100966.47;5032386;28;20095;-66
2021/04/01 06:43:52;;;;;;;8.10;4.90;;;;;;;13.02;72.53;100967.59;5028383;28;20120;-66
2021/04/01 06:46:20;;;;;;;9.80;5.75;;;;;;;13.22;71.92;100971.34;5028604;28;20191;-66
2021/04/01 06:51:47;;;;;;;11.60;5.45;;;;;;;13.74;71.23;100955.78;5013129;28;20129;-68
2021/04/01 06:54:24;;;;;;;11.85;6.07;;;;;;;14.17;70.55;100965.78;5030364;28;20132;-68
2021/04/01 06:56:58;;;;;;;18.10;9.73;;;;;;;14.26;70.52;100963.13;5031961;28;20046;-68
2021/04/01 06:59:40;;;;;;;20.30;10.98;;;;;;;14.30;70.50;100967.59;5030147;28;20513;-68
2021/04/01 07:02:16;;;;;;;18.00;9.13;;;;;;;14.34;71.35;100972.00;5025618;28;20137;-68
2021/04/01 07:04:46;;;;;;;15.07;8.80;;;;;;;14.42;71.66;100982.72;5013562;28;20554;-68
2021/04/01 07:07:16;;;;;;;17.55;9.25;;;;;;;14.50;70.62;100978.31;5012525;28;20129;-68
2021/04/01 07:10:01;;;;;;;24.13;14.18;;;;;;;14.44;70.79;100972.94;5015171;28;20045;-67
2021/04/01 07:12:31;;;;;;;21.27;12.45;;;;;;;14.35;70.88;100981.75;5031196;28;20064;-67
2021/04/01 07:15:09;;;;;;;13.07;7.75;;;;;;;14.28;71.01;101000.31;5044903;28;20120;-68
2021/04/01 07:17:41;;;;;;;12.40;6.75;;;;;;;14.21;71.55;100996.75;5033855;28;20044;-68
2021/04/01 07:48:36;;;;;;;13.32;7.32;;;;;;;11.83;77.58;101034.13;5447022;23;21878;-71
2021/04/01 07:51:05;;;;;;;16.50;8.70;;;;;;;11.75;78.05;101038.44;4922235;28;20028;-71
2021/04/01 07:53:33;;;;;;;17.05;10.55;;;;;;;11.66;78.58;101039.16;4932427;28;20098;-70
2021/04/01 08:04:46;;;;;;;14.55;8.38;;;;;;;11.62;79.75;101044.38;4894210;22;20049;-70
2021/04/01 08:07:15;;;;;;;15.00;9.23;;;;;;;11.76;79.89;101041.09;5063617;23;20137;-69
2021/04/01 08:09:47;;;;;;;12.07;8.32;;;;;;;12.11;79.68;101046.91;5029362;28;20041;-70
2021/04/01 08:12:24;;;;;;;15.30;10.13;;;;;;;12.61;78.93;101050.19;5030546;28;20041;-70
2021/04/01 08:14:59;;;;;;;14.90;8.98;;;;;;;12.97;79.40;101035.59;5029352;28;20048;-69
2021/04/01 08:17:33;;;;;;;17.15;12.38;;;;;;;13.20;79.34;101041.13;5029843;28;20064;-70
2021/04/01 08:20:01;;;;;;;13.52;7.18;;;;;;;13.45;79.65;101038.72;5030483;28;20057;-70
2021/04/01 08:22:31;;;;;;;14.73;7.28;;;;;;;14.11;79.04;101045.34;5019719;28;20041;-70
2021/04/01 08:25:02;;;;;;;12.15;6.90;;;;;;;14.43;78.52;101050.88;5017825;28;20735;-71
2021/04/01 08:27:43;;;;;;;11.27;7.57;;;;;;;14.34;78.66;101061.44;5024232;28;20121;-71
2021/04/01 08:33:05;;;;;;;23.27;13.60;;;;;;;13.63;79.59;101076.88;4997734;28;20053;-71
2021/04/01 08:35:33;;;;;;;20.90;11.80;;;;;;;13.25;79.68;101072.13;5017021;28;20042;-69
2021/04/01 08:38:18;;;;;;;19.20;12.07;;;;;;;13.05;79.96;101078.97;5015496;28;20120;-71
2021/04/01 08:56:26;;;;;;;13.68;8.20;;;;;;;12.24;78.21;101082.38;5366537;22;20116;-73
2021/04/01 08:59:22;;;;;;;11.85;7.78;;;;;;;12.14;77.86;101083.13;4993717;23;20115;-73
2021/04/01 09:02:13;;;;;;;14.57;7.43;;;;;;;12.07;77.84;101089.19;5007815;28;20108;-71
2021/04/01 09:05:04;;;;;;;15.07;9.70;;;;;;;12.02;78.42;101094.38;5005361;28;20512;-72
2021/04/01 09:07:53;;;;;;;17.80;10.18;;;;;;;11.95;78.23;101100.44;4998432;28;20092;-71
2021/04/01 09:10:53;;;;;;;19.55;11.25;;;;;;;12.00;77.63;101109.38;4994197;28;20099;-72
2021/04/01 09:13:28;;;;;;;24.25;13.63;;;;;;;11.97;78.18;101114.59;5005341;28;20060;-72
2021/04/01 09:15:59;;;;;;;33.25;21.42;;;;;;;11.82;78.08;101117.88;5010912;28;20045;-72
2021/04/01 09:18:28;;;;;;;30.63;19.00;;;;;;;11.78;78.90;101113.44;5009916;28;20070;-72
2021/04/01 09:20:57;;;;;;;35.78;21.00;;;;;;;11.72;78.97;101093.91;5010478;28;20517;-72
2021/04/01 09:23:46;;;;;;;23.40;14.95;;;;;;;11.47;79.37;101097.88;5011737;28;20049;-71
2021/04/01 09:26:32;;;;;;;27.63;19.17;;;;;;;11.33;79.85;101075.59;4997463;28;20146;-71
2021/04/01 09:29:18;;;;;;;19.40;11.48;;;;;;;11.37;80.78;101085.34;5012564;28;20064;-71
2021/04/01 09:32:04;;;;;;;19.23;11.57;;;;;;;11.49;80.55;101090.84;5009573;28;20742;-72
2021/04/01 09:34:34;;;;;;;15.50;8.60;;;;;;;11.47;80.23;101092.59;5010647;28;20454;-72
2021/04/01 09:37:11;;;;;;;18.65;10.80;;;;;;;11.52;80.46;101089.16;5010810;28;20169;-71
2021/04/01 09:39:38;;;;;;;21.65;13.10;;;;;;;11.60;80.26;101078.72;5002757;28;20107;-72
2021/04/01 09:42:08;;;;;;;14.32;9.15;;;;;;;11.73;80.68;101067.47;5010843;28;20132;-71
2021/04/01 09:44:37;;;;;;;11.18;8.30;;;;;;;11.90;80.62;101070.41;5004877;28;20142;-71
2021/04/01 09:47:28;;;;;;;13.32;8.05;;;;;;;12.01;80.74;101075.88;5012489;28;20064;-71
2021/04/01 09:50:14;;;;;;;21.50;15.55;;;;;;;11.98;80.11;101082.88;5012541;28;20275;-72
2021/04/01 09:52:57;;;;;;;50.78;24.23;;;;;;;12.00;80.61;101089.97;5009618;28;20053;-72
2021/04/01 09:55:44;;;;;;;25.08;14.40;;;;;;;11.86;81.19;101090.66;5010319;28;20097;-73
2021/04/01 09:58:20;;;;;;;17.27;11.13;;;;;;;11.87;81.49;101078.31;5011204;28;20133;-73
2021/04/01 10:01:27;;;;;;;12.27;7.85;;;;;;;11.94;82.01;101086.38;5014123;28;20409;-72
2021/04/01 10:03:57;;;;;;;13.25;9.00;;;;;;;12.17;81.58;101084.03;5002958;28;20049;-71
2021/04/01 10:06:45;;;;;;;10.68;6.20;;;;;;;12.49;81.54;101086.22;4999489;28;20543;-71
2021/04/01 10:09:14;;;;;;;8.63;5.85;;;;;;;12.58;81.49;101078.41;5014265;28;20389;-71
2021/04/01 10:11:46;;;;;;;13.60;10.32;;;;;;;12.60;81.04;101069.59;5013592;28;20065;-71
2021/04/01 10:14:14;;;;;;;10.70;7.55;;;;;;;12.41;80.56;101085.22;5008240;28;20464;-71
2021/04/01 10:17:04;;;;;;;9.25;6.00;;;;;;;12.20;80.61;101091.16;5011523;28;20061;-71
2021/04/01 10:19:54;;;;;;;9.30;5.30;;;;;;;12.10;81.66;101097.16;4995810;28;20053;-72
2021/04/01 10:22:41;;;;;;;9.43;5.70;;;;;;;11.92;80.63;101093.38;5011368;28;20575;-71
2021/04/01 10:25:15;;;;;;;12.43;9.00;;;;;;;11.93;80.62;101088.97;5010038;28;20049;-71
2021/04/01 10:27:48;;;;;;;18.42;15.50;;;;;;;12.01;80.34;101089.09;5013701;28;20041;-71
2021/04/01 10:30:17;;;;;;;12.63;7.68;;;;;;;12.00;80.20;101082.91;5013131;28;20061;-71
2021/04/01 10:32:54;;;;;;;13.65;7.07;;;;;;;12.15;80.12;101077.81;5013280;28;20050;-71
2021/04/01 10:35:25;;;;;;;14.23;7.45;;;;;;;12.35;80.12;101078.09;5008846;28;20045;-71
2021/04/01 10:37:56;;;;;;;14.75;7.57;;;;;;;12.66;80.20;101080.28;5017089;28;20077;-72
2021/04/01 10:40:24;;;;;;;11.60;7.03;;;;;;;12.87;80.11;101074.31;5009363;28;20064;-72
2021/04/01 10:43:04;;;;;;;11.35;6.63;;;;;;;13.01;80.41;101066.53;5032010;28;20049;-71
2021/04/01 10:45:35;;;;;;;11.30;6.38;;;;;;;12.94;81.07;101064.69;5002933;28;20045;-71
2021/04/01 10:48:21;;;;;;;11.65;7.72;;;;;;;12.90;80.57;101068.19;5011026;28;20042;-70
2021/04/01 10:50:50;;;;;;;10.68;5.93;;;;;;;12.86;80.68;101061.09;5000672;28;20041;-70
2021/04/01 10:53:19;;;;;;;13.77;7.22;;;;;;;12.78;80.53;101061.00;5012465;28;20400;-70
2021/04/01 10:55:46;;;;;;;12.48;7.68;;;;;;;12.84;80.25;101046.94;5012616;28;20042;-71
2021/04/01 10:58:14;;;;;;;14.25;7.13;;;;;;;13.31;79.33;101047.44;5008013;28;20133;-70
2021/04/01 11:00:50;;;;;;;11.65;7.25;;;;;;;13.54;78.71;101048.50;5011813;28;20125;-70
2021/04/01 11:03:21;;;;;;;13.27;7.55;;;;;;;13.40;78.96;101055.44;5011740;28;20610;-71
2021/04/01 11:05:49;;;;;;;14.63;7.47;;;;;;;13.00;79.58;101078.88;5009787;28;20048;-74
2021/04/01 11:08:20;;;;;;;24.77;10.75;;;;;;;12.26;81.12;101093.88;5010963;28;20693;-73
2021/04/01 11:10:56;;;;;;;26.75;17.40;;;;;;;11.66;83.60;101075.28;5011778;28;20070;-73
2021/04/01 11:13:31;;;;;;;26.45;12.90;;;;;;;11.48;85.30;101070.59;4994302;28;20338;-72
2021/04/01 11:15:59;;;;;;;17.23;10.10;;;;;;;11.40;86.27;101069.56;5011963;28;20046;-71
2021/04/01 11:18:29;;;;;;;20.67;11.40;;;;;;;11.44;87.55;101077.56;4999585;28;20045;-72
2021/04/01 11:20:57;;;;;;;18.27;13.13;;;;;;;11.62;88.05;101098.13;5009594;28;20120;-72
2021/04/01 11:23:28;;;;;;;24.50;12.85;;;;;;;11.69;88.47;101110.59;5017109;28;20048;-73
2021/04/01 11:25:56;;;;;;;31.02;17.70;;;;;;;11.54;88.76;101107.72;5016182;28;20046;-72
2021/04/01 11:28:34;;;;;;;21.88;12.77;;;;;;;11.39;88.61;101105.69;5018708;28;20037;-72
2021/04/01 11:31:01;;;;;;;17.15;11.30;;;;;;;11.34;89.18;101114.41;5013006;28;20036;-72
2021/04/01 11:33:30;;;;;;;22.90;8.63;;;;;;;11.34;88.89;101112.66;5009565;28;20038;-72
2021/04/01 11:36:04;;;;;;;18.40;10.13;;;;;;;11.28;89.10;101109.91;5004231;28;20374;-72
2021/04/01 11:38:38;;;;;;;16.02;7.68;;;;;;;11.40;88.23;101120.69;5001154;28;20073;-71
2021/04/01 11:41:07;;;;;;;17.95;10.93;;;;;;;11.61;88.00;101128.09;5001702;28;20037;-70
2021/04/01 11:43:35;;;;;;;17.25;10.15;;;;;;;11.76;87.56;101115.16;5032691;28;20056;-70
2021/04/01 11:46:14;;;;;;;20.98;7.88;;;;;;;11.96;87.27;101119.00;5018841;28;20042;-71
2021/04/01 11:48:43;;;;;;;14.57;6.65;;;;;;;12.04;86.32;101113.84;5003578;28;20626;-72
2021/04/01 11:51:17;;;;;;;13.85;7.07;;;;;;;12.09;85.36;101120.06;5029056;28;20060;-71
2021/04/01 11:53:44;;;;;;;11.20;4.90;;;;;;;12.25;84.41;101121.22;5026963;28;20132;-70
2021/04/01 11:56:11;;;;;;;14.45;6.45;;;;;;;12.56;83.88;101126.06;5031206;28;20033;-71
2021/04/01 11:58:39;;;;;;;12.38;4.82;;;;;;;12.79;83.23;101118.41;5027396;28;20073;-70
2021/04/01 12:01:09;;;;;;;12.40;6.00;;;;;;;12.81;82.92;101113.09;5012133;28;20056;-71
2021/04/01 12:03:51;;;;;;;11.60;5.22;;;;;;;12.97;81.32;101113.31;5002809;28;20541;-72
2021/04/01 12:06:22;;;;;;;12.27;5.55;;;;;;;13.34;80.73;101108.44;5014310;28;20038;-74
2021/04/01 12:08:50;;;;;;;9.23;4.38;;;;;;;13.42;79.29;101097.03;5008609;28;20030;-73
2021/04/01 12:11:17;;;;;;;10.02;3.83;;;;;;;13.67;78.93;101089.28;5010348;28;20045;-72
2021/04/01 12:13:44;;;;;;;12.15;3.88;;;;;;;13.91;78.17;101108.06;5020529;28;20037;-74
2021/04/01 12:16:18;;;;;;;11.00;5.55;;;;;;;14.02;77.38;101100.19;5015893;28;20042;-76
2021/04/01 12:18:46;;;;;;;;;;;;;;;14.02;75.00;101108.13;4994139;28;20030;-71
2021/04/01 12:21:14;;;;;;;14.48;4.63;;;;;;;14.20;76.80;101111.81;5004797;28;19921;-73
2021/04/01 12:23:45;;;;;;;13.10;3.95;;;;;;;14.68;76.85;101105.00;5011417;28;20042;-73
2021/04/01 12:26:13;;;;;;;14.35;3.47;;;;;;;14.55;74.93;101117.34;5011417;28;20490;-72
2021/04/01 12:28:40;;;;;;;6.60;2.90;;;;;;;14.44;73.70;101115.53;5010483;28;20405;-72
2021/04/01 12:31:12;;;;;;;10.25;5.18;;;;;;;14.40;71.73;101116.38;5014998;28;20045;-72
2021/04/01 12:33:48;;;;;;;12.68;4.90;;;;;;;14.06;70.55;101118.78;4996017;28;20050;-72
2021/04/01 12:36:15;;;;;;;11.05;3.92;;;;;;;13.93;71.01;101132.84;5005340;28;20038;-72
2021/04/01 12:38:46;;;;;;;13.52;4.05;;;;;;;14.06;68.95;101121.44;5016104;28;20041;-72
2021/04/01 12:41:27;;;;;;;10.57;4.97;;;;;;;13.87;67.03;101125.72;5015065;28;20035;-72
2021/04/01 12:43:54;;;;;;;9.10;4.75;;;;;;;14.13;67.88;101117.06;5007190;28;20057;-71
2021/04/01 12:46:22;;;;;;;11.25;4.35;;;;;;;14.51;68.20;101114.66;5008066;28;20485;-71
2021/04/01 12:48:51;;;;;;;10.27;3.95;;;;;;;14.71;67.04;101113.88;5011335;28;20048;-71
2021/04/01 12:51:20;;;;;;;10.18;3.50;;;;;;;15.20;67.19;101115.81;5011200;28;20038;-71
2021/04/01 12:54:02;;;;;;;9.88;3.40;;;;;;;15.04;67.15;101112.22;5014768;28;20045;-71
2021/04/01 12:56:32;;;;;;;12.65;5.35;;;;;;;14.67;66.37;101109.44;5011418;28;20053;-71
2021/04/01 12:59:02;;;;;;;8.73;3.97;;;;;;;14.63;66.98;101115.63;5023437;28;20497;-72